sensor_id;sensor_type;location;lat;lon;timestamp;temperature;humidity
66831;DHT22;53739;44.224;22.528;2022-09-09T00:17:14;486.70;2380.80
66831;DHT22;53739;44.224;22.528;2022-09-09T00:19:56;486.70;2380.80
66831;DHT22;53739;44.224;22.528;2022-09-09T00:22:27;486.70;2380.80
66831;DHT22;53739;44.224;22.528;2022-09-09T00:25:13;486.70;2380.80
66831;DHT22;53739;44.224;22.528;2022-09-09T00:27:50;486.70;2380.80
66831;DHT22;53739;44.224;22.528;2022-09-09T00:30:45;486.70;2380.80
66831;DHT22;53739;44.224;22.528;2022-09-09T00:33:27;486.70;2380.80
66831;DHT22;53739;44.224;22.528;2022-09-09T04:31:59;461.50;2380.80
66831;DHT22;53739;44.224;22.528;2022-09-09T05:36:51;487.10;2380.80
66831;DHT22;53739;44.224;22.528;2022-09-09T05:49:25;487.30;2380.80
66831;DHT22;53739;44.224;22.528;2022-09-09T05:55:21;512.00;2380.80
66831;DHT22;53739;44.224;22.528;2022-09-09T06:05:05;487.30;2380.80
66831;DHT22;53739;44.224;22.528;2022-09-09T06:08:15;512.20;2380.80
66831;DHT22;53739;44.224;22.528;2022-09-09T06:35:15;538.50;2406.40
66831;DHT22;53739;44.224;22.528;2022-09-09T07:58:01;589.30;2432.00
66831;DHT22;53739;44.224;22.528;2022-09-09T08:00:33;589.20;2432.00
66831;DHT22;53739;44.224;22.528;2022-09-09T08:03:06;589.30;2432.00
66831;DHT22;53739;44.224;22.528;2022-09-09T08:05:34;589.30;2432.00
66831;DHT22;53739;44.224;22.528;2022-09-09T08:08:03;589.30;2432.00
66831;DHT22;53739;44.224;22.528;2022-09-09T08:10:42;589.30;2432.00
66831;DHT22;53739;44.224;22.528;2022-09-09T08:13:10;589.30;2432.00
66831;DHT22;53739;44.224;22.528;2022-09-09T08:15:39;589.40;2432.00
66831;DHT22;53739;44.224;22.528;2022-09-09T08:18:06;589.40;2432.00
66831;DHT22;53739;44.224;22.528;2022-09-09T08:20:32;589.40;2432.00
66831;DHT22;53739;44.224;22.528;2022-09-09T08:22:58;589.50;2432.00
66831;DHT22;53739;44.224;22.528;2022-09-09T08:25:43;589.50;2432.00
66831;DHT22;53739;44.224;22.528;2022-09-09T08:28:11;589.60;2432.00
66831;DHT22;53739;44.224;22.528;2022-09-09T08:30:39;589.60;2432.00
66831;DHT22;53739;44.224;22.528;2022-09-09T08:33:36;589.70;2432.00
66831;DHT22;53739;44.224;22.528;2022-09-09T11:08:40;665.90;2432.00
66831;DHT22;53739;44.224;22.528;2022-09-09T11:18:08;666.00;2432.00
66831;DHT22;53739;44.224;22.528;2022-09-09T11:20:37;666.50;2432.00
66831;DHT22;53739;44.224;22.528;2022-09-09T11:23:10;691.40;2432.00
66831;DHT22;53739;44.224;22.528;2022-09-09T17:01:03;640.70;2432.00
66831;DHT22;53739;44.224;22.528;2022-09-09T17:03:30;640.50;2432.00
66831;DHT22;53739;44.224;22.528;2022-09-09T17:23:06;640.00;2432.00
66831;DHT22;53739;44.224;22.528;2022-09-09T17:25:32;615.20;2432.00
66831;DHT22;53739;44.224;22.528;2022-09-09T17:27:59;615.00;2432.00
66831;DHT22;53739;44.224;22.528;2022-09-09T17:30:26;614.90;2432.00
66831;DHT22;53739;44.224;22.528;2022-09-09T17:32:59;614.80;2432.00
66831;DHT22;53739;44.224;22.528;2022-09-09T17:35:25;614.80;2432.00
66831;DHT22;53739;44.224;22.528;2022-09-09T17:37:53;614.70;2432.00
66831;DHT22;53739;44.224;22.528;2022-09-09T17:40:20;614.70;2432.00
66831;DHT22;53739;44.224;22.528;2022-09-09T17:42:46;614.70;2432.00
66831;DHT22;53739;44.224;22.528;2022-09-09T17:45:13;614.60;2432.00
66831;DHT22;53739;44.224;22.528;2022-09-09T17:47:39;614.60;2432.00
66831;DHT22;53739;44.224;22.528;2022-09-09T17:50:06;614.50;2432.00
66831;DHT22;53739;44.224;22.528;2022-09-09T17:52:32;614.40;2432.00
66831;DHT22;53739;44.224;22.528;2022-09-09T17:54:58;614.40;2432.00
66831;DHT22;53739;44.224;22.528;2022-09-09T17:57:25;589.70;2432.00
66831;DHT22;53739;44.224;22.528;2022-09-09T17:59:51;589.70;2432.00
66831;DHT22;53739;44.224;22.528;2022-09-09T18:02:17;589.70;2432.00
66831;DHT22;53739;44.224;22.528;2022-09-09T18:04:42;589.60;2432.00
66831;DHT22;53739;44.224;22.528;2022-09-09T18:07:08;589.60;2432.00
66831;DHT22;53739;44.224;22.528;2022-09-09T18:09:34;589.50;2432.00
66831;DHT22;53739;44.224;22.528;2022-09-09T18:12:00;589.50;2432.00
66831;DHT22;53739;44.224;22.528;2022-09-09T18:14:29;589.40;2432.00
66831;DHT22;53739;44.224;22.528;2022-09-09T18:23:41;589.10;2432.00
66831;DHT22;53739;44.224;22.528;2022-09-09T18:26:13;589.00;2432.00
66831;DHT22;53739;44.224;22.528;2022-09-09T18:34:56;589.00;2432.00
66831;DHT22;53739;44.224;22.528;2022-09-09T18:37:23;588.80;2432.00
66831;DHT22;53739;44.224;22.528;2022-09-09T18:39:50;564.10;2432.00
66831;DHT22;53739;44.224;22.528;2022-09-09T19:09:23;564.10;2432.00
66831;DHT22;53739;44.224;22.528;2022-09-09T19:11:49;564.00;2432.00
66831;DHT22;53739;44.224;22.528;2022-09-09T19:16:43;564.00;2432.00
66831;DHT22;53739;44.224;22.528;2022-09-09T19:31:40;563.80;2432.00
66831;DHT22;53739;44.224;22.528;2022-09-09T19:34:06;563.60;2432.00
66831;DHT22;53739;44.224;22.528;2022-09-09T19:36:33;563.60;2432.00
66831;DHT22;53739;44.224;22.528;2022-09-09T19:38:59;563.50;2432.00
66831;DHT22;53739;44.224;22.528;2022-09-09T19:41:26;563.40;2432.00
66831;DHT22;53739;44.224;22.528;2022-09-09T19:43:57;563.30;2432.00
66831;DHT22;53739;44.224;22.528;2022-09-09T19:46:24;563.40;2432.00
66831;DHT22;53739;44.224;22.528;2022-09-09T19:48:50;538.50;2406.40
66831;DHT22;53739;44.224;22.528;2022-09-09T19:51:19;563.20;2432.00
66831;DHT22;53739;44.224;22.528;2022-09-09T19:53:49;538.50;2406.40
66831;DHT22;53739;44.224;22.528;2022-09-09T19:56:16;538.50;2406.40
66831;DHT22;53739;44.224;22.528;2022-09-09T19:58:45;538.40;2406.40
66831;DHT22;53739;44.224;22.528;2022-09-09T20:01:14;538.30;2406.40
66831;DHT22;53739;44.224;22.528;2022-09-09T20:03:41;538.20;2406.40
66831;DHT22;53739;44.224;22.528;2022-09-09T20:06:10;538.20;2406.40
66831;DHT22;53739;44.224;22.528;2022-09-09T20:08:37;538.20;2406.40
66831;DHT22;53739;44.224;22.528;2022-09-09T20:11:04;538.20;2406.40
66831;DHT22;53739;44.224;22.528;2022-09-09T20:13:33;538.20;2406.40
66831;DHT22;53739;44.224;22.528;2022-09-09T20:16:05;538.10;2406.40
66831;DHT22;53739;44.224;22.528;2022-09-09T20:18:33;538.10;2406.40
66831;DHT22;53739;44.224;22.528;2022-09-09T20:21:01;538.10;2406.40
66831;DHT22;53739;44.224;22.528;2022-09-09T20:23:27;538.20;2406.40
66831;DHT22;53739;44.224;22.528;2022-09-09T20:25:53;538.20;2406.40
66831;DHT22;53739;44.224;22.528;2022-09-09T20:28:20;538.30;2406.40
66831;DHT22;53739;44.224;22.528;2022-09-09T20:30:49;538.10;2406.40
66831;DHT22;53739;44.224;22.528;2022-09-09T20:33:18;537.90;2406.40
66831;DHT22;53739;44.224;22.528;2022-09-09T20:35:44;537.90;2406.40
66831;DHT22;53739;44.224;22.528;2022-09-09T20:38:10;538.00;2406.40
66831;DHT22;53739;44.224;22.528;2022-09-09T20:40:37;538.00;2406.40
66831;DHT22;53739;44.224;22.528;2022-09-09T20:43:04;538.00;2406.40
66831;DHT22;53739;44.224;22.528;2022-09-09T20:45:34;538.10;2406.40
66831;DHT22;53739;44.224;22.528;2022-09-09T20:48:00;538.10;2406.40
66831;DHT22;53739;44.224;22.528;2022-09-09T20:50:26;538.10;2406.40
66831;DHT22;53739;44.224;22.528;2022-09-09T20:52:51;538.10;2406.40
66831;DHT22;53739;44.224;22.528;2022-09-09T20:55:17;538.10;2406.40
66831;DHT22;53739;44.224;22.528;2022-09-09T20:57:43;538.00;2406.40
66831;DHT22;53739;44.224;22.528;2022-09-09T21:00:10;538.00;2406.40
66831;DHT22;53739;44.224;22.528;2022-09-09T21:02:36;538.00;2406.40
66831;DHT22;53739;44.224;22.528;2022-09-09T21:05:02;538.00;2406.40
66831;DHT22;53739;44.224;22.528;2022-09-09T21:07:28;538.00;2406.40
66831;DHT22;53739;44.224;22.528;2022-09-09T21:09:54;538.10;2406.40
66831;DHT22;53739;44.224;22.528;2022-09-09T21:12:23;537.90;2406.40
66831;DHT22;53739;44.224;22.528;2022-09-09T21:14:49;538.00;2406.40
66831;DHT22;53739;44.224;22.528;2022-09-09T21:17:16;537.80;2406.40
66831;DHT22;53739;44.224;22.528;2022-09-09T21:19:44;537.70;2406.40
66831;DHT22;53739;44.224;22.528;2022-09-09T21:22:10;537.80;2406.40
66831;DHT22;53739;44.224;22.528;2022-09-09T21:24:38;537.80;2406.40
66831;DHT22;53739;44.224;22.528;2022-09-09T21:27:04;537.80;2406.40
66831;DHT22;53739;44.224;22.528;2022-09-09T21:29:30;537.80;2406.40
66831;DHT22;53739;44.224;22.528;2022-09-09T21:31:56;537.80;2406.40
66831;DHT22;53739;44.224;22.528;2022-09-09T21:34:22;537.70;2406.40
66831;DHT22;53739;44.224;22.528;2022-09-09T21:36:48;537.70;2406.40
66831;DHT22;53739;44.224;22.528;2022-09-09T21:39:13;537.70;2406.40
66831;DHT22;53739;44.224;22.528;2022-09-09T21:41:39;512.90;2380.80
66831;DHT22;53739;44.224;22.528;2022-09-09T21:44:05;512.90;2380.80
66831;DHT22;53739;44.224;22.528;2022-09-09T21:46:32;512.90;2380.80
66831;DHT22;53739;44.224;22.528;2022-09-09T21:48:58;512.90;2380.80
66831;DHT22;53739;44.224;22.528;2022-09-09T21:51:28;512.80;2380.80
66831;DHT22;53739;44.224;22.528;2022-09-09T21:53:55;512.80;2380.80
66831;DHT22;53739;44.224;22.528;2022-09-09T21:56:21;512.80;2380.80
66831;DHT22;53739;44.224;22.528;2022-09-09T21:58:52;512.90;2380.80
66831;DHT22;53739;44.224;22.528;2022-09-09T22:01:18;512.90;2380.80
66831;DHT22;53739;44.224;22.528;2022-09-09T22:03:45;512.80;2380.80
66831;DHT22;53739;44.224;22.528;2022-09-09T22:06:13;512.80;2380.80
66831;DHT22;53739;44.224;22.528;2022-09-09T22:08:39;512.80;2380.80
66831;DHT22;53739;44.224;22.528;2022-09-09T22:11:07;512.80;2380.80
66831;DHT22;53739;44.224;22.528;2022-09-09T22:13:34;512.70;2380.80
66831;DHT22;53739;44.224;22.528;2022-09-09T22:16:03;512.70;2380.80
66831;DHT22;53739;44.224;22.528;2022-09-09T22:18:29;512.70;2380.80
66831;DHT22;53739;44.224;22.528;2022-09-09T22:20:56;512.70;2380.80
66831;DHT22;53739;44.224;22.528;2022-09-09T22:23:24;512.70;2380.80
66831;DHT22;53739;44.224;22.528;2022-09-09T22:25:50;512.80;2380.80
66831;DHT22;53739;44.224;22.528;2022-09-09T22:28:19;512.70;2380.80
66831;DHT22;53739;44.224;22.528;2022-09-09T22:30:45;512.60;2380.80
66831;DHT22;53739;44.224;22.528;2022-09-09T22:33:12;512.60;2380.80
66831;DHT22;53739;44.224;22.528;2022-09-09T22:35:39;512.70;2380.80
66831;DHT22;53739;44.224;22.528;2022-09-09T22:38:10;512.50;2380.80
66831;DHT22;53739;44.224;22.528;2022-09-09T22:40:40;512.60;2380.80
66831;DHT22;53739;44.224;22.528;2022-09-09T22:43:20;512.70;2380.80
66831;DHT22;53739;44.224;22.528;2022-09-09T22:45:46;512.80;2380.80
66831;DHT22;53739;44.224;22.528;2022-09-09T22:48:14;512.70;2380.80
66831;DHT22;53739;44.224;22.528;2022-09-09T22:50:40;512.70;2380.80
66831;DHT22;53739;44.224;22.528;2022-09-09T22:53:08;512.70;2380.80
66831;DHT22;53739;44.224;22.528;2022-09-09T22:55:34;512.70;2380.80
66831;DHT22;53739;44.224;22.528;2022-09-09T22:58:00;512.70;2380.80
66831;DHT22;53739;44.224;22.528;2022-09-09T23:00:27;512.70;2380.80
66831;DHT22;53739;44.224;22.528;2022-09-09T23:02:53;512.70;2380.80
66831;DHT22;53739;44.224;22.528;2022-09-09T23:05:21;512.80;2380.80
66831;DHT22;53739;44.224;22.528;2022-09-09T23:07:49;512.80;2380.80
66831;DHT22;53739;44.224;22.528;2022-09-09T23:10:18;512.80;2380.80
66831;DHT22;53739;44.224;22.528;2022-09-09T23:12:44;512.80;2380.80
66831;DHT22;53739;44.224;22.528;2022-09-09T23:15:11;512.80;2380.80
66831;DHT22;53739;44.224;22.528;2022-09-09T23:17:37;512.80;2380.80
66831;DHT22;53739;44.224;22.528;2022-09-09T23:20:05;512.80;2380.80
66831;DHT22;53739;44.224;22.528;2022-09-09T23:22:37;512.80;2380.80
66831;DHT22;53739;44.224;22.528;2022-09-09T23:25:05;512.80;2380.80
66831;DHT22;53739;44.224;22.528;2022-09-09T23:27:31;512.60;2380.80
66831;DHT22;53739;44.224;22.528;2022-09-09T23:29:58;512.70;2380.80
66831;DHT22;53739;44.224;22.528;2022-09-09T23:32:24;512.70;2380.80
66831;DHT22;53739;44.224;22.528;2022-09-09T23:34:50;512.70;2380.80
66831;DHT22;53739;44.224;22.528;2022-09-09T23:37:16;512.70;2380.80
66831;DHT22;53739;44.224;22.528;2022-09-09T23:39:43;512.70;2380.80
66831;DHT22;53739;44.224;22.528;2022-09-09T23:42:10;512.60;2380.80
66831;DHT22;53739;44.224;22.528;2022-09-09T23:44:36;512.50;2380.80
66831;DHT22;53739;44.224;22.528;2022-09-09T23:47:07;512.60;2380.80
66831;DHT22;53739;44.224;22.528;2022-09-09T23:49:35;512.50;2380.80
66831;DHT22;53739;44.224;22.528;2022-09-09T23:52:04;512.60;2380.80
66831;DHT22;53739;44.224;22.528;2022-09-09T23:54:33;512.70;2380.80
66831;DHT22;53739;44.224;22.528;2022-09-09T23:56:59;512.70;2380.80
66831;DHT22;53739;44.224;22.528;2022-09-09T23:59:26;512.70;2380.80
